createdAt,value
2022-12-28T00:00:29.400Z,12.95
2022-12-28T00:03:47.371Z,10.95
2022-12-28T00:07:03.638Z,10.58
2022-12-28T00:10:20.283Z,9.30
2022-12-28T00:13:40.331Z,10.00
2022-12-28T00:16:56.398Z,9.05
2022-12-28T00:20:14.194Z,10.55
2022-12-28T00:23:30.501Z,9.83
2022-12-28T00:26:46.837Z,8.48
2022-12-28T00:30:03.761Z,10.18
2022-12-28T00:33:20.100Z,8.85
2022-12-28T00:37:11.143Z,7.95
2022-12-28T00:39:54.586Z,10.15
2022-12-28T00:43:10.924Z,9.40
2022-12-28T00:46:27.066Z,12.13
2022-12-28T00:49:43.511Z,10.68
2022-12-28T00:52:59.802Z,10.13
2022-12-28T00:56:20.424Z,10.83
2022-12-28T00:59:36.535Z,10.18
2022-12-28T01:02:52.783Z,8.48
2022-12-28T01:06:12.601Z,13.13
2022-12-28T01:09:28.771Z,10.05
2022-12-28T01:12:45.052Z,12.18
2022-12-28T01:16:01.675Z,12.95
2022-12-28T01:19:21.078Z,11.05
2022-12-28T01:25:50.865Z,13.40
2022-12-28T01:29:08.924Z,11.38
2022-12-28T01:32:26.425Z,11.90
2022-12-28T01:35:44.153Z,11.68
2022-12-28T01:39:05.555Z,12.03
2022-12-28T01:42:26.020Z,10.48
2022-12-28T01:45:42.207Z,9.53
2022-12-28T01:49:03.517Z,10.38
2022-12-28T01:52:25.536Z,10.68
2022-12-28T01:55:46.084Z,9.15
2022-12-28T01:59:04.872Z,12.80
2022-12-28T02:05:44.625Z,12.05
2022-12-28T02:09:08.450Z,11.40
2022-12-28T02:12:25.944Z,10.03
2022-12-28T02:15:42.269Z,9.53
2022-12-28T02:18:59.781Z,10.35
2022-12-28T02:22:39.258Z,8.83
2022-12-28T02:26:29.928Z,8.28
2022-12-28T02:30:07.028Z,9.95
2022-12-28T02:33:28.264Z,9.73
2022-12-28T02:36:50.211Z,9.45
2022-12-28T02:40:10.814Z,9.53
2022-12-28T02:43:27.373Z,8.48
2022-12-28T02:47:00.026Z,8.53
2022-12-28T02:50:20.179Z,9.43
2022-12-28T02:53:50.811Z,9.75
2022-12-28T02:57:14.049Z,6.73
2022-12-28T03:00:34.579Z,9.58
2022-12-28T03:03:57.572Z,10.65
2022-12-28T03:07:34.053Z,7.53
2022-12-28T03:10:55.766Z,8.43
2022-12-28T03:14:18.382Z,7.80
2022-12-28T03:17:51.536Z,6.40
2022-12-28T03:21:26.328Z,8.98
2022-12-28T03:24:58.886Z,8.03
2022-12-28T03:28:34.050Z,6.50
2022-12-28T03:31:52.001Z,8.15
2022-12-28T03:35:10.812Z,7.78
2022-12-28T03:38:35.059Z,5.45
2022-12-28T03:42:06.257Z,6.73
2022-12-28T03:45:46.131Z,5.98
2022-12-28T03:48:47.181Z,6.20
2022-12-28T03:52:05.748Z,5.00
2022-12-28T03:55:24.643Z,6.48
2022-12-28T04:01:58.792Z,4.85
2022-12-28T04:05:17.950Z,4.88
2022-12-28T04:08:35.541Z,5.10
2022-12-28T04:11:53.360Z,4.78
2022-12-28T04:15:12.568Z,4.00
2022-12-28T04:18:28.917Z,4.35
2022-12-28T04:21:45.257Z,4.73
2022-12-28T04:25:01.595Z,7.28
2022-12-28T04:28:19.783Z,5.45
2022-12-28T04:31:54.014Z,4.18
2022-12-28T04:35:11.216Z,4.70
2022-12-28T04:38:29.571Z,5.50
2022-12-28T04:41:45.787Z,5.05
2022-12-28T04:45:01.951Z,6.33
2022-12-28T04:48:18.090Z,4.55
2022-12-28T04:51:36.245Z,5.85
2022-12-28T04:54:52.358Z,4.53
2022-12-28T04:58:09.078Z,4.45
2022-12-28T05:01:27.424Z,4.73
2022-12-28T05:04:43.688Z,4.00
2022-12-28T05:07:59.854Z,4.23
2022-12-28T05:11:20.191Z,5.20
2022-12-28T05:17:51.433Z,3.78
2022-12-28T05:21:12.696Z,3.18
2022-12-28T05:24:28.757Z,3.73
2022-12-28T05:27:44.957Z,3.38
2022-12-28T05:31:06.471Z,4.10
2022-12-28T05:34:22.584Z,5.33
2022-12-28T05:37:38.831Z,3.88
2022-12-28T05:40:54.878Z,4.05
2022-12-28T05:44:12.892Z,4.35
2022-12-28T05:47:28.742Z,4.03
2022-12-28T05:50:45.288Z,4.70
2022-12-28T05:54:01.773Z,4.58
2022-12-28T05:57:21.008Z,5.13
2022-12-28T06:00:36.980Z,4.53
2022-12-28T06:03:57.179Z,4.75
2022-12-28T06:07:13.256Z,6.25
2022-12-28T06:10:29.397Z,7.00
2022-12-28T06:13:46.202Z,4.33
2022-12-28T06:17:02.161Z,5.78
2022-12-28T06:20:20.217Z,6.28
2022-12-28T06:23:36.219Z,7.43
2022-12-28T06:26:53.216Z,7.75
2022-12-28T06:30:09.581Z,8.13
2022-12-28T06:33:25.497Z,7.90
2022-12-28T06:36:46.534Z,6.55
2022-12-28T06:40:02.582Z,7.90
2022-12-28T06:43:18.877Z,6.48
2022-12-28T06:46:38.995Z,6.73
2022-12-28T06:49:55.290Z,6.50
2022-12-28T06:53:11.558Z,9.80
2022-12-28T06:56:30.256Z,6.28
2022-12-28T06:59:46.427Z,6.55
2022-12-28T07:03:11.635Z,6.55
2022-12-28T07:06:31.881Z,7.28
2022-12-28T07:09:48.242Z,6.63
2022-12-28T07:13:04.604Z,7.68
2022-12-28T07:16:24.054Z,6.50
2022-12-28T07:22:54.648Z,6.25
2022-12-28T07:26:18.679Z,7.85
2022-12-28T07:29:34.812Z,7.33
2022-12-28T07:32:50.953Z,7.60
2022-12-28T07:36:07.941Z,8.70
2022-12-28T07:39:26.078Z,7.75
2022-12-28T07:42:43.443Z,8.15
2022-12-28T07:46:09.701Z,13.20
2022-12-28T07:49:26.065Z,7.53
2022-12-28T07:52:44.734Z,7.05
2022-12-28T07:56:06.773Z,5.78
2022-12-28T07:59:29.000Z,8.00
2022-12-28T08:02:41.317Z,7.30
2022-12-28T08:06:00.081Z,8.63
2022-12-28T08:09:18.394Z,7.87
2022-12-28T08:12:34.450Z,6.30
2022-12-28T08:15:50.857Z,5.85
2022-12-28T08:19:07.526Z,8.48
2022-12-28T08:22:24.769Z,6.70
2022-12-28T08:25:42.896Z,5.68
2022-12-28T08:29:03.180Z,7.83
2022-12-28T08:32:20.578Z,5.68
2022-12-28T08:35:36.867Z,6.68
2022-12-28T08:38:56.030Z,4.03
2022-12-28T08:42:12.400Z,7.40
2022-12-28T08:45:31.066Z,5.23
2022-12-28T08:48:49.610Z,6.65
2022-12-28T08:52:08.901Z,7.80
2022-12-28T08:55:25.890Z,7.65
2022-12-28T08:58:42.041Z,7.48
2022-12-28T09:01:58.435Z,9.85
2022-12-28T09:05:18.138Z,9.23
2022-12-28T09:08:36.888Z,10.85
2022-12-28T09:11:54.174Z,9.07
2022-12-28T09:15:10.854Z,9.30
2022-12-28T09:18:28.843Z,7.33
2022-12-28T09:21:49.077Z,6.75
2022-12-28T09:25:05.840Z,7.15
2022-12-28T09:28:22.749Z,10.00
2022-12-28T09:31:42.577Z,9.58
2022-12-28T09:35:01.396Z,7.78
2022-12-28T09:38:17.598Z,6.50
2022-12-28T09:41:38.279Z,7.15
2022-12-28T09:45:06.930Z,7.15
2022-12-28T09:48:28.676Z,4.80
2022-12-28T09:51:50.282Z,8.28
2022-12-28T09:55:14.679Z,5.85
2022-12-28T09:58:55.701Z,8.88
2022-12-28T10:02:23.697Z,6.60
2022-12-28T10:05:40.880Z,8.98
2022-12-28T10:09:01.931Z,15.20
2022-12-28T10:12:29.062Z,14.25
2022-12-28T10:15:45.464Z,9.23
2022-12-28T10:19:02.364Z,7.73
2022-12-28T10:22:22.524Z,7.05
2022-12-28T10:25:40.494Z,8.03
2022-12-28T10:29:01.297Z,6.58
2022-12-28T10:32:22.499Z,6.18
2022-12-28T10:35:42.134Z,6.80
2022-12-28T10:39:02.524Z,6.58
2022-12-28T10:42:30.179Z,7.28
2022-12-28T10:45:51.369Z,7.38
2022-12-28T10:49:15.399Z,9.58
2022-12-28T10:52:30.845Z,9.85
2022-12-28T10:55:50.058Z,7.25
2022-12-28T10:59:30.946Z,6.98
2022-12-28T11:02:48.388Z,8.03
2022-12-28T11:06:35.300Z,8.85
2022-12-28T11:09:52.060Z,7.23
2022-12-28T11:13:09.284Z,9.88
2022-12-28T11:16:25.756Z,10.93
2022-12-28T11:19:42.900Z,7.00
2022-12-28T11:23:00.079Z,9.08
2022-12-28T11:26:20.800Z,7.60
2022-12-28T11:29:37.260Z,9.13
2022-12-28T11:33:01.971Z,9.30
2022-12-28T11:36:24.841Z,9.38
2022-12-28T11:39:50.529Z,9.40
2022-12-28T11:43:06.741Z,7.83
2022-12-28T11:46:51.372Z,8.85
2022-12-28T11:50:45.924Z,7.53
2022-12-28T11:54:05.653Z,9.75
2022-12-28T11:57:26.002Z,8.25
2022-12-28T12:01:01.589Z,10.18
2022-12-28T12:04:46.955Z,9.05
2022-12-28T12:08:16.701Z,11.13
2022-12-28T12:11:49.054Z,36.50
2022-12-28T12:15:10.052Z,15.00
2022-12-28T12:18:31.376Z,15.50
2022-12-28T12:21:51.342Z,10.00
2022-12-28T12:25:13.409Z,10.20
2022-12-28T12:28:46.223Z,9.23
2022-12-28T12:32:06.828Z,12.68
2022-12-28T12:35:25.614Z,12.35
2022-12-28T12:38:58.221Z,11.28
2022-12-28T12:42:21.679Z,9.73
2022-12-28T12:45:43.655Z,7.85
2022-12-28T12:49:18.115Z,9.65
2022-12-28T12:52:45.086Z,8.78
2022-12-28T12:56:09.753Z,9.05
2022-12-28T12:59:45.392Z,6.83
2022-12-28T13:03:39.827Z,7.55
2022-12-28T13:06:57.190Z,5.75
2022-12-28T13:10:19.402Z,5.60
2022-12-28T13:13:41.227Z,7.28
2022-12-28T13:17:01.875Z,6.60
2022-12-28T13:20:28.247Z,6.00
2022-12-28T13:23:52.649Z,5.33
2022-12-28T13:27:19.942Z,5.50
2022-12-28T13:30:36.814Z,6.95
2022-12-28T13:34:04.056Z,6.18
2022-12-28T13:37:26.402Z,6.80
2022-12-28T13:40:43.548Z,6.98
2022-12-28T13:44:31.279Z,5.08
2022-12-28T13:47:52.537Z,5.90
2022-12-28T13:51:09.117Z,6.23
2022-12-28T13:54:25.806Z,4.38
2022-12-28T13:57:48.287Z,5.28
2022-12-28T14:01:09.261Z,4.83
2022-12-28T14:07:49.206Z,27.20
2022-12-28T14:11:07.409Z,4.73
2022-12-28T14:14:24.961Z,4.13
2022-12-28T14:17:41.465Z,3.78
2022-12-28T14:21:01.314Z,3.50
2022-12-28T14:24:20.635Z,3.70
2022-12-28T14:30:57.564Z,5.58
2022-12-28T14:34:18.359Z,4.73
2022-12-28T14:37:39.437Z,8.68
2022-12-28T14:41:02.735Z,8.05
2022-12-28T14:44:26.326Z,4.78
2022-12-28T14:47:50.725Z,7.83
2022-12-28T14:51:10.524Z,6.55
2022-12-28T14:54:33.468Z,7.15
2022-12-28T14:57:52.467Z,23.68
2022-12-28T15:01:13.726Z,9.85
2022-12-28T15:04:44.733Z,11.78
2022-12-28T15:08:02.157Z,10.08
2022-12-28T15:11:22.465Z,8.40
2022-12-28T15:14:38.581Z,8.28
2022-12-28T15:17:56.096Z,10.18
2022-12-28T15:21:15.134Z,8.65
2022-12-28T15:24:34.246Z,9.28
2022-12-28T15:27:52.574Z,9.68
2022-12-28T15:31:11.946Z,13.53
2022-12-28T15:34:28.617Z,14.88
2022-12-28T15:37:44.989Z,13.73
2022-12-28T15:41:04.465Z,16.75
2022-12-28T15:44:21.508Z,13.43
2022-12-28T15:47:37.817Z,11.65
2022-12-28T15:50:54.260Z,12.38
2022-12-28T15:54:10.855Z,14.45
2022-12-28T15:57:26.945Z,11.80
2022-12-28T16:00:47.551Z,8.68
2022-12-28T16:04:04.459Z,11.45
2022-12-28T16:07:21.532Z,9.75
2022-12-28T16:10:37.741Z,10.93
2022-12-28T16:13:57.511Z,11.18
2022-12-28T16:17:13.616Z,10.10
2022-12-28T16:20:30.127Z,10.88
2022-12-28T16:23:50.718Z,12.20
2022-12-28T16:27:07.008Z,12.20
2022-12-28T16:30:24.269Z,13.50
2022-12-28T16:33:40.206Z,16.40
2022-12-28T16:36:58.434Z,16.65
2022-12-28T16:40:19.810Z,14.70
2022-12-28T16:43:36.525Z,16.55
2022-12-28T16:46:52.671Z,17.70
2022-12-28T16:50:08.822Z,18.98
2022-12-28T16:53:25.102Z,20.88
2022-12-28T16:56:41.365Z,19.63
2022-12-28T16:59:57.454Z,19.95
2022-12-28T17:03:13.583Z,22.03
2022-12-28T17:06:30.267Z,22.28
2022-12-28T17:09:50.119Z,20.08
2022-12-28T17:13:05.720Z,17.70
2022-12-28T17:16:22.008Z,19.53
2022-12-28T17:19:38.398Z,22.30
2022-12-28T17:22:54.594Z,20.30
2022-12-28T17:26:11.360Z,17.95
2022-12-28T17:29:27.466Z,17.30
2022-12-28T17:32:44.563Z,18.40
2022-12-28T17:36:04.156Z,16.20
2022-12-28T17:39:27.903Z,17.25
2022-12-28T17:42:44.256Z,16.55
2022-12-28T17:46:00.636Z,16.70
2022-12-28T17:49:20.310Z,16.73
2022-12-28T17:52:37.056Z,14.90
2022-12-28T17:55:53.396Z,16.33
2022-12-28T17:59:10.193Z,21.33
2022-12-28T18:02:29.812Z,17.95
2022-12-28T18:05:46.266Z,14.50
2022-12-28T18:09:02.515Z,19.15
2022-12-28T18:12:29.954Z,15.13
2022-12-28T18:15:51.531Z,13.75
2022-12-28T18:19:07.718Z,14.00
2022-12-28T18:22:24.073Z,14.73
2022-12-28T18:25:42.447Z,19.60
2022-12-28T18:28:58.728Z,14.68
2022-12-28T18:32:15.336Z,17.88
2022-12-28T18:35:31.492Z,15.98
2022-12-28T18:38:55.030Z,15.28
2022-12-28T18:42:12.591Z,20.28
2022-12-28T18:45:28.819Z,17.25
2022-12-28T18:48:47.620Z,16.88
2022-12-28T18:52:04.797Z,15.93
2022-12-28T18:55:22.254Z,17.63
2022-12-28T18:58:43.657Z,18.28
2022-12-28T19:02:10.733Z,18.23
2022-12-28T19:05:18.674Z,15.63
2022-12-28T19:08:45.888Z,16.75
2022-12-28T19:12:03.586Z,15.47
2022-12-28T19:15:21.006Z,16.50
2022-12-28T19:18:37.738Z,18.53
2022-12-28T19:21:58.680Z,16.15
2022-12-28T19:25:14.215Z,15.43
2022-12-28T19:28:30.690Z,16.98
2022-12-28T19:31:47.113Z,16.30
2022-12-28T19:35:03.415Z,14.75
2022-12-28T19:38:22.779Z,15.80
2022-12-28T19:41:39.022Z,15.28
2022-12-28T19:44:55.622Z,15.45
2022-12-28T19:48:12.616Z,14.83
2022-12-28T19:51:31.385Z,16.08
2022-12-28T19:54:47.505Z,15.55
2022-12-28T19:58:03.671Z,19.73
2022-12-28T20:01:23.520Z,14.35
2022-12-28T20:04:42.569Z,16.80
2022-12-28T20:07:58.913Z,20.98
2022-12-28T20:11:15.566Z,17.00
2022-12-28T20:14:33.706Z,18.93
2022-12-28T20:17:51.225Z,16.23
2022-12-28T20:21:24.630Z,17.53
2022-12-28T20:24:59.847Z,16.55
2022-12-28T20:28:58.043Z,18.60
2022-12-28T20:33:27.523Z,16.75
2022-12-28T20:43:17.346Z,18.98
2022-12-28T20:47:29.135Z,19.05
2022-12-28T20:51:47.008Z,15.23
2022-12-28T20:55:13.640Z,16.58
2022-12-28T20:58:30.379Z,16.05
2022-12-28T21:01:48.403Z,17.85
2022-12-28T21:05:19.039Z,17.00
2022-12-28T21:08:36.150Z,16.35
2022-12-28T21:11:52.950Z,15.68
2022-12-28T21:15:09.417Z,17.20
2022-12-28T21:18:25.875Z,16.08
2022-12-28T21:21:42.087Z,16.58
2022-12-28T21:24:58.297Z,18.90
2022-12-28T21:28:15.458Z,17.78
2022-12-28T21:31:47.336Z,19.33
2022-12-28T21:35:03.411Z,20.93
2022-12-28T21:38:19.475Z,18.25
2022-12-28T21:41:54.229Z,19.50
2022-12-28T21:45:11.935Z,20.90
2022-12-28T21:48:28.374Z,17.43
2022-12-28T21:51:44.794Z,21.23
2022-12-28T21:55:03.647Z,16.70
2022-12-28T21:58:19.929Z,18.70
2022-12-28T22:01:51.631Z,19.28
2022-12-28T22:05:22.694Z,16.88
2022-12-28T22:08:55.659Z,17.13
2022-12-28T22:12:31.590Z,18.20
2022-12-28T22:15:56.724Z,13.75
2022-12-28T22:19:13.539Z,12.30
2022-12-28T22:22:31.170Z,13.33
2022-12-28T22:25:50.162Z,12.83
2022-12-28T22:29:06.335Z,13.75
2022-12-28T22:32:22.486Z,12.13
2022-12-28T22:35:39.197Z,13.15
2022-12-28T22:38:55.342Z,9.85
2022-12-28T22:42:11.950Z,10.78
2022-12-28T22:45:31.876Z,9.93
2022-12-28T22:48:48.170Z,10.40
2022-12-28T22:52:04.644Z,10.43
2022-12-28T22:55:21.289Z,9.65
2022-12-28T22:58:38.022Z,9.88
2022-12-28T23:01:54.371Z,11.58
2022-12-28T23:05:11.215Z,9.15
2022-12-28T23:08:27.503Z,7.70
2022-12-28T23:11:44.068Z,11.28
2022-12-28T23:15:14.928Z,9.33
2022-12-28T23:18:45.509Z,12.73
2022-12-28T23:22:15.682Z,11.15
2022-12-28T23:25:47.959Z,10.98
2022-12-28T23:29:04.045Z,11.28
2022-12-28T23:32:20.368Z,12.30
2022-12-28T23:35:36.707Z,12.68
2022-12-28T23:38:52.902Z,10.45
2022-12-28T23:42:09.271Z,11.15
2022-12-28T23:45:26.579Z,12.08
2022-12-28T23:48:42.916Z,11.88
2022-12-28T23:52:00.505Z,10.15
2022-12-28T23:55:18.231Z,13.03
2022-12-28T23:58:34.435Z,14.93
